createdAt,value
2022-11-09T00:00:54.207Z,87.62
2022-11-09T00:04:57.173Z,87.74
2022-11-09T00:09:06.806Z,87.46
2022-11-09T00:13:11.914Z,87.38
2022-11-09T00:17:15.472Z,87.34
2022-11-09T00:21:20.191Z,87.27
2022-11-09T00:25:23.123Z,87.44
2022-11-09T00:29:27.462Z,87.27
2022-11-09T00:33:30.475Z,87.44
2022-11-09T00:37:33.538Z,87.45
2022-11-09T00:41:36.434Z,87.50
2022-11-09T00:45:41.411Z,87.41
2022-11-09T00:49:44.320Z,87.64
2022-11-09T00:53:48.367Z,87.51
2022-11-09T00:57:52.091Z,87.63
2022-11-09T01:01:57.948Z,87.87
2022-11-09T01:06:01.293Z,87.51
2022-11-09T01:10:05.010Z,87.68
2022-11-09T01:14:08.017Z,87.73
2022-11-09T01:18:13.146Z,87.81
2022-11-09T01:22:16.131Z,87.79
2022-11-09T01:26:19.351Z,87.58
2022-11-09T01:30:22.469Z,87.71
2022-11-09T01:34:29.249Z,87.86
2022-11-09T01:38:32.550Z,87.43
2022-11-09T01:42:38.592Z,87.75
2022-11-09T01:46:51.257Z,87.87
2022-11-09T01:51:00.312Z,88.13
2022-11-09T01:55:11.712Z,88.14
2022-11-09T01:59:18.878Z,88.05
2022-11-09T02:03:26.392Z,88.08
2022-11-09T02:07:30.894Z,88.02
2022-11-09T02:11:37.746Z,88.12
2022-11-09T02:15:45.508Z,88.11
2022-11-09T02:19:49.138Z,88.00
2022-11-09T02:23:53.752Z,88.11
2022-11-09T02:27:57.008Z,88.28
2022-11-09T02:32:03.501Z,88.44
2022-11-09T02:36:07.152Z,88.53
2022-11-09T02:40:17.891Z,88.55
2022-11-09T02:44:21.148Z,88.60
2022-11-09T02:48:24.229Z,88.53
2022-11-09T02:52:27.271Z,88.64
2022-11-09T02:56:31.701Z,88.76
2022-11-09T03:00:35.909Z,88.40
2022-11-09T03:04:39.027Z,88.60
2022-11-09T03:08:42.806Z,89.07
2022-11-09T03:12:47.580Z,88.74
2022-11-09T03:16:51.223Z,89.02
2022-11-09T03:20:55.415Z,88.95
2022-11-09T03:24:58.414Z,89.04
2022-11-09T03:29:03.328Z,89.20
2022-11-09T03:33:10.147Z,89.04
2022-11-09T03:37:14.282Z,89.12
2022-11-09T03:41:18.252Z,89.17
2022-11-09T03:45:23.169Z,89.26
2022-11-09T03:49:26.096Z,89.21
2022-11-09T03:53:29.023Z,89.50
2022-11-09T03:57:32.189Z,89.79
2022-11-09T04:01:36.540Z,89.60
2022-11-09T04:05:39.537Z,89.72
2022-11-09T04:09:42.475Z,89.96
2022-11-09T04:13:45.401Z,89.89
2022-11-09T04:17:57.470Z,90.15
2022-11-09T04:22:00.413Z,89.93
2022-11-09T04:26:03.318Z,90.19
2022-11-09T04:30:07.303Z,90.46
2022-11-09T04:34:11.574Z,90.47
2022-11-09T04:38:15.853Z,90.69
2022-11-09T04:42:19.032Z,90.42
2022-11-09T04:46:22.402Z,90.77
2022-11-09T04:50:27.042Z,90.76
2022-11-09T04:54:30.247Z,90.49
2022-11-09T04:58:33.545Z,90.61
2022-11-09T05:02:36.507Z,90.33
2022-11-09T05:06:40.822Z,90.34
2022-11-09T05:10:43.766Z,90.36
2022-11-09T05:14:46.834Z,90.92
2022-11-09T05:18:50.113Z,90.72
2022-11-09T05:23:12.247Z,90.55
2022-11-09T05:27:15.593Z,90.97
2022-11-09T05:31:18.558Z,90.52
2022-11-09T05:35:23.901Z,90.74
2022-11-09T05:39:28.328Z,90.64
2022-11-09T05:43:31.271Z,90.54
2022-11-09T05:47:38.437Z,90.43
2022-11-09T05:51:41.429Z,90.90
2022-11-09T05:55:45.897Z,90.48
2022-11-09T05:59:49.113Z,90.54
2022-11-09T06:03:54.671Z,90.60
2022-11-09T06:08:03.511Z,90.61
2022-11-09T06:12:08.441Z,90.67
2022-11-09T06:16:11.612Z,90.39
2022-11-09T06:20:14.775Z,90.45
2022-11-09T06:24:17.654Z,90.32
2022-11-09T06:28:22.086Z,89.83
2022-11-09T06:32:25.201Z,89.75
2022-11-09T06:36:28.306Z,89.63
2022-11-09T06:40:31.628Z,89.39
2022-11-09T06:44:36.019Z,89.53
2022-11-09T06:48:39.261Z,89.49
2022-11-09T06:52:42.180Z,89.28
2022-11-09T06:56:45.160Z,89.11
2022-11-09T07:00:49.509Z,89.01
2022-11-09T07:04:53.322Z,88.60
2022-11-09T07:08:57.207Z,88.87
2022-11-09T07:13:00.432Z,88.67
2022-11-09T07:17:04.999Z,88.53
2022-11-09T07:21:13.825Z,88.52
2022-11-09T07:25:17.687Z,88.56
2022-11-09T07:29:20.562Z,88.44
2022-11-09T07:33:25.438Z,88.56
2022-11-09T07:37:28.716Z,88.42
2022-11-09T07:41:34.628Z,88.44
2022-11-09T07:45:38.361Z,88.09
2022-11-09T07:49:42.635Z,88.13
2022-11-09T07:53:45.572Z,88.17
2022-11-09T07:57:48.477Z,88.23
2022-11-09T08:01:51.512Z,87.93
2022-11-09T08:05:58.032Z,87.79
2022-11-09T08:10:00.986Z,88.15
2022-11-09T08:14:04.536Z,87.97
2022-11-09T08:18:09.357Z,88.10
2022-11-09T08:22:13.851Z,87.85
2022-11-09T08:26:17.745Z,88.25
2022-11-09T08:30:22.296Z,88.09
2022-11-09T08:34:25.550Z,87.89
2022-11-09T08:38:33.256Z,87.84
2022-11-09T08:42:36.333Z,87.43
2022-11-09T08:46:41.367Z,87.22
2022-11-09T08:50:44.717Z,87.64
2022-11-09T08:54:49.182Z,88.00
2022-11-09T08:58:52.256Z,87.60
2022-11-09T09:02:55.537Z,87.67
2022-11-09T09:07:00.280Z,87.32
2022-11-09T09:11:05.372Z,86.81
2022-11-09T09:15:09.185Z,86.69
2022-11-09T09:19:12.215Z,86.85
2022-11-09T09:23:16.996Z,86.88
2022-11-09T09:27:21.362Z,87.09
2022-11-09T09:31:24.294Z,86.89
2022-11-09T09:35:27.553Z,86.97
2022-11-09T09:39:30.595Z,87.02
2022-11-09T09:43:43.213Z,86.99
2022-11-09T09:47:54.311Z,87.01
2022-11-09T09:52:02.610Z,86.97
2022-11-09T09:56:12.064Z,87.04
2022-11-09T10:00:23.603Z,86.99
2022-11-09T10:04:36.173Z,87.03
2022-11-09T10:08:51.399Z,86.96
2022-11-09T10:13:15.824Z,87.07
2022-11-09T10:17:31.944Z,86.57
2022-11-09T10:21:43.547Z,86.85
2022-11-09T10:26:03.626Z,86.46
2022-11-09T10:30:15.341Z,86.77
2022-11-09T10:34:21.765Z,86.83
2022-11-09T10:38:30.262Z,86.47
2022-11-09T10:42:54.562Z,86.71
2022-11-09T10:47:17.846Z,86.83
2022-11-09T10:51:43.053Z,86.62
2022-11-09T10:56:20.360Z,86.79
2022-11-09T11:00:58.260Z,86.35
2022-11-09T11:05:31.973Z,86.52
2022-11-09T11:09:55.881Z,86.67
2022-11-09T11:14:23.500Z,86.35
2022-11-09T11:18:47.916Z,86.74
2022-11-09T11:23:15.636Z,86.64
2022-11-09T11:27:44.284Z,86.74
2022-11-09T11:32:11.613Z,86.65
2022-11-09T11:36:49.514Z,86.65
2022-11-09T11:41:32.821Z,86.92
2022-11-09T11:46:07.026Z,86.54
2022-11-09T11:50:36.545Z,86.79
2022-11-09T11:55:15.331Z,87.31
2022-11-09T12:00:05.395Z,87.12
2022-11-09T12:04:52.336Z,87.33
2022-11-09T12:14:09.144Z,87.01
2022-11-09T12:18:41.615Z,86.97
2022-11-09T12:23:22.258Z,87.06
2022-11-09T12:27:56.766Z,86.84
2022-11-09T12:32:28.941Z,86.55
2022-11-09T12:36:56.743Z,86.57
2022-11-09T12:41:23.783Z,86.42
2022-11-09T12:45:45.854Z,86.29
2022-11-09T12:50:13.191Z,85.91
2022-11-09T12:54:36.582Z,85.91
2022-11-09T13:20:00.350Z,85.44
2022-11-09T13:24:56.166Z,85.47
2022-11-09T13:29:27.295Z,85.41
2022-11-09T13:33:48.854Z,85.17
2022-11-09T13:38:17.984Z,84.44
2022-11-09T13:42:39.238Z,84.59
2022-11-09T13:47:00.748Z,84.04
2022-11-09T13:51:24.176Z,84.25
2022-11-09T13:55:47.049Z,84.12
2022-11-09T14:00:19.674Z,83.67
2022-11-09T14:04:42.355Z,83.70
2022-11-09T14:09:04.196Z,83.93
2022-11-09T14:13:51.550Z,83.78
2022-11-09T14:18:23.931Z,83.63
2022-11-09T14:22:45.560Z,83.58
2022-11-09T14:27:15.939Z,83.82
2022-11-09T14:31:45.787Z,83.63
2022-11-09T14:36:07.938Z,83.65
2022-11-09T14:40:31.580Z,83.26
2022-11-09T14:44:53.757Z,83.24
2022-11-09T14:49:24.705Z,83.54
2022-11-09T14:53:47.193Z,83.17
2022-11-09T14:58:14.350Z,83.20
2022-11-09T15:02:37.385Z,83.19
2022-11-09T15:07:03.840Z,82.98
2022-11-09T15:11:33.209Z,82.89
2022-11-09T15:15:56.154Z,82.83
2022-11-09T15:20:33.325Z,82.66
2022-11-09T15:24:56.295Z,82.78
2022-11-09T15:29:36.890Z,82.38
2022-11-09T15:34:00.876Z,82.44
2022-11-09T15:38:35.380Z,82.46
2022-11-09T15:42:59.127Z,82.67
2022-11-09T15:47:24.159Z,82.39
2022-11-09T15:51:46.089Z,82.68
2022-11-09T15:56:09.831Z,83.01
2022-11-09T16:00:32.658Z,82.81
2022-11-09T16:04:54.422Z,82.81
2022-11-09T16:09:16.459Z,83.00
2022-11-09T16:13:38.108Z,83.33
2022-11-09T16:18:01.590Z,84.75
2022-11-09T16:22:23.216Z,84.66
2022-11-09T16:26:45.745Z,83.55
2022-11-09T16:31:07.461Z,82.81
2022-11-09T16:35:30.376Z,82.77
2022-11-09T16:39:52.417Z,82.58
2022-11-09T16:44:16.140Z,82.45
2022-11-09T16:48:37.642Z,82.56
2022-11-09T16:53:00.307Z,82.62
2022-11-09T16:57:21.924Z,82.70
2022-11-09T17:01:43.580Z,82.82
2022-11-09T17:06:05.604Z,82.59
2022-11-09T17:10:28.878Z,82.54
2022-11-09T17:14:50.631Z,82.63
2022-11-09T17:19:14.363Z,82.79
2022-11-09T17:23:35.997Z,83.00
2022-11-09T17:27:58.979Z,83.01
2022-11-09T17:32:24.905Z,82.53
2022-11-09T17:37:03.690Z,83.26
2022-11-09T17:41:26.382Z,83.15
2022-11-09T17:45:49.210Z,83.12
2022-11-09T17:50:10.838Z,83.12
2022-11-09T17:54:36.670Z,82.90
2022-11-09T17:58:58.881Z,82.68
2022-11-09T18:03:21.942Z,82.54
2022-11-09T18:07:43.581Z,82.94
2022-11-09T18:12:05.449Z,82.90
2022-11-09T18:16:28.194Z,83.07
2022-11-09T18:20:52.011Z,83.25
2022-11-09T18:25:13.536Z,83.03
2022-11-09T18:29:34.816Z,83.43
2022-11-09T18:33:56.570Z,83.50
2022-11-09T18:38:20.319Z,83.75
2022-11-09T18:42:42.964Z,83.97
2022-11-09T18:47:05.824Z,84.15
2022-11-09T18:51:27.682Z,84.03
2022-11-09T18:55:51.075Z,84.21
2022-11-09T19:00:13.919Z,83.77
2022-11-09T19:04:36.357Z,83.75
2022-11-09T19:09:15.422Z,83.74
2022-11-09T19:13:38.939Z,83.65
2022-11-09T19:18:00.669Z,83.57
2022-11-09T19:22:22.309Z,83.39
2022-11-09T19:26:43.995Z,83.37
2022-11-09T19:31:07.187Z,83.28
2022-11-09T19:35:32.642Z,82.91
2022-11-09T19:39:55.675Z,82.96
2022-11-09T19:44:18.163Z,82.12
2022-11-09T19:48:44.883Z,81.82
2022-11-09T19:53:08.889Z,81.71
2022-11-09T19:57:30.911Z,81.57
2022-11-09T20:01:52.769Z,81.68
2022-11-09T20:06:15.938Z,82.09
2022-11-09T20:10:37.779Z,81.91
2022-11-09T20:14:59.873Z,82.25
2022-11-09T20:19:23.775Z,82.40
2022-11-09T20:23:48.441Z,82.57
2022-11-09T20:28:10.225Z,82.61
2022-11-09T20:32:32.412Z,82.74
2022-11-09T20:36:53.888Z,82.81
2022-11-09T20:41:18.742Z,82.69
2022-11-09T20:45:43.393Z,83.05
2022-11-09T20:50:05.427Z,82.69
2022-11-09T20:54:27.264Z,82.56
2022-11-09T20:58:50.981Z,82.36
2022-11-09T21:03:12.254Z,82.49
2022-11-09T21:07:33.896Z,82.46
2022-11-09T21:12:12.678Z,82.30
2022-11-09T21:16:35.701Z,82.10
2022-11-09T21:20:57.242Z,81.80
2022-11-09T21:25:36.274Z,81.34
2022-11-09T21:29:58.263Z,81.24
2022-11-09T21:34:21.036Z,81.85
2022-11-09T21:38:42.862Z,82.07
2022-11-09T21:43:04.329Z,82.21
2022-11-09T21:47:26.218Z,82.11
2022-11-09T21:51:49.123Z,82.51
2022-11-09T21:56:11.290Z,82.39
2022-11-09T22:00:32.935Z,82.65
2022-11-09T22:04:54.454Z,82.19
2022-11-09T22:09:19.536Z,81.72
2022-11-09T22:13:59.155Z,82.19
2022-11-09T22:18:34.591Z,82.51
2022-11-09T22:22:56.297Z,82.84
2022-11-09T22:27:19.356Z,82.98
2022-11-09T22:31:41.127Z,83.28
2022-11-09T22:36:04.536Z,83.68
2022-11-09T22:40:25.961Z,84.00
2022-11-09T22:44:49.064Z,84.26
2022-11-09T22:49:10.527Z,84.39
2022-11-09T22:53:32.653Z,84.52
2022-11-09T22:57:55.966Z,84.48
2022-11-09T23:02:19.362Z,84.69
2022-11-09T23:06:41.161Z,84.86
2022-11-09T23:11:03.114Z,84.82
2022-11-09T23:15:24.774Z,84.85
2022-11-09T23:19:47.876Z,85.36
2022-11-09T23:24:30.715Z,85.31
2022-11-09T23:28:52.798Z,85.53
2022-11-09T23:33:14.150Z,85.57
2022-11-09T23:37:36.948Z,85.80
2022-11-09T23:41:58.381Z,85.82
2022-11-09T23:46:20.132Z,86.19
2022-11-09T23:50:41.819Z,86.04
2022-11-09T23:55:04.962Z,86.05
2022-11-09T23:59:26.646Z,85.70
